TimeEDT,TemperatureF,Dew PointF,Humidity,Sea Level PressureIn,VisibilityMPH,Wind Direction,Wind SpeedMPH,Gust SpeedMPH,PrecipitationIn,Events,Conditions,WindDirDegrees,DateUTC
12:51 AM,37.0,15.1,41,30.27,10.0,NNW,12.7,29.9,N/A,,Clear,330,2013-04-04 04:51:00
1:51 AM,36.0,14.0,41,30.28,10.0,NNW,12.7,20.7,N/A,,Clear,340,2013-04-04 05:51:00
2:51 AM,36.0,14.0,41,30.30,10.0,NNW,9.2,-,N/A,,Clear,340,2013-04-04 06:51:00
3:51 AM,36.0,14.0,41,30.32,10.0,NW,11.5,-,N/A,,Clear,310,2013-04-04 07:51:00
4:51 AM,35.1,14.0,42,30.32,10.0,West,6.9,-,N/A,,Clear,260,2013-04-04 08:51:00
5:51 AM,35.1,15.1,44,30.35,10.0,WNW,8.1,-,N/A,,Clear,300,2013-04-04 09:51:00
6:51 AM,35.1,16.0,46,30.37,10.0,WNW,9.2,-,N/A,,Clear,300,2013-04-04 10:51:00
7:51 AM,36.0,16.0,44,30.39,10.0,WNW,8.1,-,N/A,,Partly Cloudy,300,2013-04-04 11:51:00
8:51 AM,37.4,15.8,41,30.37,10.0,NNW,4.6,-,N/A,,Partly Cloudy,330,2013-04-04 12:51:00
9:51 AM,39.9,16.0,38,30.36,10.0,Variable,3.5,-,N/A,,Mostly Cloudy,0,2013-04-04 13:51:00
10:51 AM,42.1,16.0,35,30.36,10.0,Variable,5.8,-,N/A,,Mostly Cloudy,0,2013-04-04 14:51:00
11:51 AM,44.1,15.1,31,30.33,10.0,Variable,6.9,-,N/A,,Mostly Cloudy,0,2013-04-04 15:51:00
12:51 PM,46.9,16.0,29,30.30,10.0,Variable,6.9,-,N/A,,Mostly Cloudy,0,2013-04-04 16:51:00
1:51 PM,48.0,14.0,26,30.26,10.0,SW,8.1,16.1,N/A,,Mostly Cloudy,220,2013-04-04 17:51:00
2:51 PM,48.9,19.9,32,30.23,10.0,South,10.4,-,N/A,,Mostly Cloudy,190,2013-04-04 18:51:00
3:51 PM,48.0,23.0,37,30.20,10.0,South,18.4,-,N/A,,Mostly Cloudy,170,2013-04-04 19:51:00
4:51 PM,46.0,25.0,44,30.18,10.0,South,16.1,-,N/A,,Mostly Cloudy,170,2013-04-04 20:51:00
5:51 PM,45.0,26.1,48,30.17,10.0,South,13.8,21.9,N/A,,Mostly Cloudy,170,2013-04-04 21:51:00
6:51 PM,43.0,28.9,58,30.17,10.0,South,9.2,25.3,N/A,,Overcast,170,2013-04-04 22:51:00
7:51 PM,44.1,30.0,58,30.16,10.0,South,10.4,-,N/A,,Overcast,180,2013-04-04 23:51:00
8:51 PM,45.0,28.9,53,30.14,10.0,South,10.4,-,N/A,,Overcast,180,2013-04-05 00:51:00
9:51 PM,46.0,28.0,50,30.13,10.0,South,11.5,-,N/A,,Overcast,180,2013-04-05 01:51:00
10:51 PM,44.1,21.9,42,30.12,10.0,SSW,11.5,-,N/A,,Overcast,200,2013-04-05 02:51:00
11:51 PM,44.1,17.1,34,30.09,10.0,SW,11.5,-,N/A,,Overcast,220,2013-04-05 03:51:00